Time;durP1;ratioP1;P1;durP2;ratioP2;P2;SDS_P1;SDS_P2;PMS_P1;PMS_P2;Temp;Humidity;BMP_temperature;BMP_pressure;BME280_temperature;BME280_humidity;BME280_pressure;Samples;Min_cycle;Max_cycle;Signal;HPM_P1;HPM_P2
2021/04/26 00:01:55;;;;;;;8.20;3.93;;;11.70;34.40;;;;;;5053041;28;20645;-50
2021/04/26 00:04:22;;;;;;;3.93;3.20;;;11.70;34.50;;;;;;5052808;28;20664;-51
2021/04/26 00:06:49;;;;;;;3.23;2.37;;;11.70;34.50;;;;;;5053384;28;20653;-51
2021/04/26 00:09:15;;;;;;;2.87;2.67;;;11.60;34.40;;;;;;5052483;28;20676;-50
2021/04/26 00:11:42;;;;;;;3.57;3.30;;;11.60;34.60;;;;;;5052577;28;21202;-50
2021/04/26 00:14:10;;;;;;;4.00;3.47;;;11.60;34.80;;;;;;5054138;28;21182;-50
2021/04/26 00:16:36;;;;;;;6.77;3.67;;;11.60;34.80;;;;;;5053834;28;21209;-50
2021/04/26 00:19:04;;;;;;;3.93;2.87;;;11.50;34.70;;;;;;5053490;28;21205;-51
2021/04/26 00:21:31;;;;;;;4.20;3.80;;;11.50;34.70;;;;;;5052892;28;20656;-51
2021/04/26 00:23:58;;;;;;;3.73;2.47;;;11.50;34.90;;;;;;5036169;28;20675;-51
2021/04/26 00:26:24;;;;;;;3.97;3.50;;;11.40;34.90;;;;;;5052759;28;20712;-51
2021/04/26 00:28:51;;;;;;;4.73;2.93;;;11.40;34.90;;;;;;5052205;28;20606;-51
2021/04/26 00:31:19;;;;;;;4.07;3.70;;;11.40;34.90;;;;;;5052259;28;20657;-51
2021/04/26 00:33:45;;;;;;;3.60;3.30;;;11.40;35.00;;;;;;5052396;28;20680;-50
2021/04/26 00:36:12;;;;;;;3.93;3.20;;;11.30;35.50;;;;;;5052556;28;21226;-51
2021/04/26 00:38:39;;;;;;;7.30;3.63;;;11.30;35.00;;;;;;5052349;28;20688;-50
2021/04/26 00:41:06;;;;;;;3.77;2.90;;;11.30;35.10;;;;;;5052263;28;20634;-52
2021/04/26 00:43:32;;;;;;;3.40;3.10;;;11.30;35.20;;;;;;5052904;28;20702;-51
2021/04/26 00:45:59;;;;;;;4.00;3.17;;;11.30;36.20;;;;;;5052344;28;20633;-51
2021/04/26 00:48:27;;;;;;;4.10;2.90;;;11.30;36.90;;;;;;5051846;28;20626;-51
2021/04/26 00:50:53;;;;;;;4.30;3.13;;;11.30;37.40;;;;;;5052380;28;20630;-51
2021/04/26 00:53:20;;;;;;;4.27;3.83;;;11.40;36.90;;;;;;5052377;28;20657;-51
2021/04/26 00:55:50;;;;;;;7.83;3.27;;;11.40;37.20;;;;;;5051983;28;20655;-51
2021/04/26 00:58:16;;;;;;;4.20;3.00;;;11.40;36.80;;;;;;5051838;28;21045;-51
2021/04/26 01:00:43;;;;;;;3.57;3.07;;;11.40;36.30;;;;;;5051906;28;20688;-51
2021/04/26 01:03:10;;;;;;;8.47;4.10;;;11.30;35.90;;;;;;5052454;28;20680;-50
2021/04/26 01:05:37;;;;;;;2.60;2.40;;;11.30;36.60;;;;;;5051432;28;21170;-51
2021/04/26 01:08:05;;;;;;;9.30;2.37;;;11.30;36.50;;;;;;5051416;28;20654;-51
2021/04/26 01:10:33;;;;;;;4.50;3.40;;;11.40;36.80;;;;;;5052226;28;20626;-51
2021/04/26 01:13:37;;;;;;;4.10;3.40;;;11.40;36.50;;;;;;5052165;28;20630;-51
2021/04/26 01:16:08;;;;;;;3.90;3.23;;;11.30;36.30;;;;;;5051901;28;20629;-51
2021/04/26 01:18:38;;;;;;;6.27;3.90;;;11.30;36.20;;;;;;5051261;28;20685;-51
2021/04/26 01:21:39;;;;;;;5.20;3.23;;;11.30;36.60;;;;;;5033301;28;20685;-51
2021/04/26 01:24:38;;;;;;;7.07;2.87;;;11.30;36.40;;;;;;5052025;28;20677;-51
2021/04/26 01:27:09;;;;;;;4.27;2.90;;;11.20;36.20;;;;;;5051690;28;21296;-51
2021/04/26 01:29:42;;;;;;;4.30;2.83;;;11.20;36.30;;;;;;5052025;28;20649;-51
2021/04/26 01:32:22;;;;;;;3.17;2.97;;;11.20;36.50;;;;;;5052052;28;21455;-51
2021/04/26 01:34:49;;;;;;;3.40;3.07;;;11.20;36.60;;;;;;5052101;28;21170;-51
2021/04/26 01:37:16;;;;;;;4.60;2.90;;;11.20;36.70;;;;;;5051959;28;20649;-50
2021/04/26 01:39:43;;;;;;;2.77;2.50;;;11.20;37.30;;;;;;5052359;28;21037;-50
2021/04/26 01:42:10;;;;;;;3.80;3.50;;;11.20;36.80;;;;;;5041490;28;20626;-51
2021/04/26 01:44:37;;;;;;;3.90;3.03;;;11.10;36.20;;;;;;5051481;28;20656;-51
2021/04/26 01:47:04;;;;;;;4.50;2.73;;;11.00;36.10;;;;;;5049015;28;20682;-51
2021/04/26 01:49:32;;;;;;;3.03;2.60;;;11.00;36.30;;;;;;5051358;28;20618;-51
2021/04/26 01:51:59;;;;;;;4.90;3.33;;;10.90;36.30;;;;;;5052020;28;20629;-51
2021/04/26 01:54:27;;;;;;;3.07;2.40;;;10.80;36.30;;;;;;5051627;28;21413;-50
2021/04/26 01:56:53;;;;;;;2.70;2.50;;;10.70;36.60;;;;;;5051122;28;20727;-51
2021/04/26 01:59:20;;;;;;;2.53;2.33;;;10.70;36.80;;;;;;5051758;28;20692;-51
2021/04/26 02:01:47;;;;;;;5.90;3.77;;;10.70;37.00;;;;;;5051052;28;21001;-51
2021/04/26 02:04:13;;;;;;;4.33;3.03;;;10.70;36.90;;;;;;5050981;28;20671;-51
2021/04/26 02:06:41;;;;;;;4.87;2.83;;;10.60;36.70;;;;;;5050068;28;20699;-51
2021/04/26 02:09:08;;;;;;;3.00;2.80;;;10.60;37.00;;;;;;5050700;28;20675;-51
2021/04/26 02:11:35;;;;;;;3.17;2.90;;;10.60;37.00;;;;;;5051289;28;20714;-51
2021/04/26 02:14:02;;;;;;;4.63;2.90;;;10.60;37.20;;;;;;5051359;28;20616;-50
2021/04/26 02:16:29;;;;;;;5.70;3.53;;;10.60;36.90;;;;;;5051102;28;20715;-51
2021/04/26 02:18:55;;;;;;;6.60;2.80;;;10.60;37.00;;;;;;5050982;28;21247;-51
2021/04/26 02:21:22;;;;;;;4.10;3.07;;;10.60;37.10;;;;;;5051033;28;20625;-51
2021/04/26 02:23:50;;;;;;;5.07;2.90;;;10.60;37.00;;;;;;5051032;28;20687;-51
2021/04/26 02:26:16;;;;;;;9.63;3.60;;;10.60;37.00;;;;;;5050333;28;21232;-51
2021/04/26 02:28:43;;;;;;;4.23;3.67;;;10.50;37.00;;;;;;5050283;28;20618;-52
2021/04/26 02:31:10;;;;;;;5.60;3.43;;;10.50;37.00;;;;;;5050863;28;20637;-51
2021/04/26 02:33:38;;;;;;;3.50;2.97;;;10.50;36.90;;;;;;5050569;28;20628;-51
2021/04/26 02:36:07;;;;;;;7.13;4.03;;;10.50;36.90;;;;;;5050661;28;20625;-51
2021/04/26 02:38:37;;;;;;;4.03;3.60;;;10.50;36.90;;;;;;5050610;28;20660;-51
2021/04/26 02:41:06;;;;;;;2.93;2.40;;;10.40;37.00;;;;;;5050931;28;20679;-51
2021/04/26 02:43:36;;;;;;;3.07;2.77;;;10.40;37.00;;;;;;5050921;28;20702;-50
2021/04/26 02:46:03;;;;;;;4.70;3.17;;;10.40;37.00;;;;;;5050303;28;20981;-50
2021/04/26 02:48:29;;;;;;;4.43;2.23;;;10.30;36.80;;;;;;5050484;28;20654;-51
2021/04/26 02:50:57;;;;;;;3.27;2.60;;;10.30;37.10;;;;;;5051087;28;21033;-51
2021/04/26 02:53:25;;;;;;;4.00;3.00;;;10.30;37.10;;;;;;5050577;28;20661;-50
2021/04/26 02:55:52;;;;;;;5.90;2.80;;;10.20;36.80;;;;;;5050793;28;21152;-51
2021/04/26 02:58:19;;;;;;;3.20;2.63;;;10.20;36.80;;;;;;5050584;28;20685;-50
2021/04/26 03:00:46;;;;;;;2.63;2.43;;;10.20;36.80;;;;;;5055610;28;20667;-50
2021/04/26 03:03:13;;;;;;;4.40;2.77;;;10.20;36.80;;;;;;5051627;28;20655;-51
2021/04/26 03:05:40;;;;;;;4.67;2.20;;;10.20;36.60;;;;;;5050299;28;20633;-51
2021/04/26 03:08:06;;;;;;;7.60;3.00;;;10.20;36.60;;;;;;5050474;28;20649;-51
2021/04/26 03:10:33;;;;;;;3.00;2.53;;;10.20;36.80;;;;;;5050715;28;21214;-50
2021/04/26 03:13:00;;;;;;;2.87;2.67;;;10.20;36.70;;;;;;5050317;28;20678;-51
2021/04/26 03:15:29;;;;;;;2.57;2.37;;;10.20;36.50;;;;;;5050853;28;20629;-51
2021/04/26 03:17:55;;;;;;;3.20;2.73;;;10.10;36.60;;;;;;5051056;28;20664;-51
2021/04/26 03:20:22;;;;;;;4.40;2.10;;;10.10;36.60;;;;;;5054251;28;21208;-51
2021/04/26 03:22:49;;;;;;;4.13;3.83;;;10.10;36.70;;;;;;5054056;28;20633;-50
2021/04/26 03:25:18;;;;;;;2.70;2.43;;;10.10;36.50;;;;;;5054289;28;21212;-51
2021/04/26 03:27:46;;;;;;;3.63;2.23;;;10.00;36.80;;;;;;5054021;28;21053;-51
2021/04/26 03:30:14;;;;;;;3.40;2.47;;;10.00;36.30;;;;;;5054097;28;20636;-51
2021/04/26 03:32:43;;;;;;;4.20;2.70;;;10.00;36.40;;;;;;5053762;28;21028;-51
2021/04/26 03:35:12;;;;;;;3.80;2.40;;;9.90;37.00;;;;;;5053820;28;20628;-51
2021/04/26 03:37:39;;;;;;;3.97;3.40;;;9.90;37.30;;;;;;5053088;28;20664;-50
2021/04/26 03:40:07;;;;;;;2.90;2.43;;;9.90;37.50;;;;;;5054096;28;21314;-51
2021/04/26 03:42:33;;;;;;;7.63;2.50;;;9.90;37.40;;;;;;5052928;28;21254;-51
2021/04/26 03:45:00;;;;;;;4.03;2.30;;;9.80;37.10;;;;;;5054018;28;20632;-50
2021/04/26 03:47:27;;;;;;;2.83;2.60;;;9.80;37.00;;;;;;5042644;28;21306;-51
2021/04/26 03:49:55;;;;;;;3.20;2.90;;;9.70;36.90;;;;;;5052912;28;20665;-50
2021/04/26 03:52:21;;;;;;;5.93;3.60;;;9.70;37.10;;;;;;5053602;28;20629;-51
2021/04/26 03:54:48;;;;;;;4.20;2.77;;;9.70;37.10;;;;;;5053235;28;20706;-51
2021/04/26 03:57:15;;;;;;;4.40;2.67;;;9.70;37.20;;;;;;5053449;28;21253;-51
2021/04/26 03:59:41;;;;;;;3.30;2.77;;;9.60;37.30;;;;;;5053089;28;20660;-51
2021/04/26 04:02:08;;;;;;;4.47;2.60;;;9.60;37.60;;;;;;5052796;28;20653;-50
2021/04/26 04:04:35;;;;;;;3.80;3.50;;;9.60;37.50;;;;;;5053182;28;20637;-50
2021/04/26 04:07:03;;;;;;;4.73;2.93;;;9.60;37.40;;;;;;5053081;28;20653;-50
2021/04/26 04:09:30;;;;;;;2.70;2.30;;;9.60;37.60;;;;;;5052494;28;20698;-50
2021/04/26 04:11:56;;;;;;;4.00;2.53;;;9.60;37.40;;;;;;5052954;28;20671;-50
2021/04/26 04:14:23;;;;;;;4.47;2.70;;;9.60;37.00;;;;;;5053451;28;20626;-50
2021/04/26 04:16:50;;;;;;;3.67;2.20;;;9.50;37.00;;;;;;5053146;28;21278;-50
2021/04/26 04:19:17;;;;;;;5.43;3.10;;;9.50;37.00;;;;;;5052052;28;21066;-50
2021/04/26 04:21:43;;;;;;;4.23;3.17;;;9.50;37.10;;;;;;5053210;28;20665;-50
2021/04/26 04:24:11;;;;;;;4.80;2.60;;;9.50;37.30;;;;;;5052147;28;21058;-51
2021/04/26 04:26:38;;;;;;;2.93;2.20;;;9.50;37.40;;;;;;5052658;28;20665;-50
2021/04/26 04:29:05;;;;;;;6.63;4.40;;;9.40;37.30;;;;;;5051436;28;21254;-51
2021/04/26 04:31:32;;;;;;;2.73;2.37;;;9.40;37.70;;;;;;5052441;28;21242;-51
2021/04/26 04:33:59;;;;;;;4.60;3.30;;;9.40;37.60;;;;;;5050839;28;20632;-51
2021/04/26 04:36:26;;;;;;;3.03;2.47;;;9.40;37.70;;;;;;5052335;28;21072;-50
2021/04/26 04:38:52;;;;;;;3.17;2.57;;;9.40;37.70;;;;;;5052069;28;20710;-51
2021/04/26 04:41:20;;;;;;;3.17;2.47;;;9.40;37.60;;;;;;5052945;28;20631;-51
2021/04/26 04:43:47;;;;;;;3.70;3.10;;;9.40;37.60;;;;;;5052106;28;20625;-51
2021/04/26 04:46:14;;;;;;;2.57;1.80;;;9.40;37.40;;;;;;5051777;28;21200;-50
2021/04/26 04:48:40;;;;;;;2.47;2.20;;;9.40;37.50;;;;;;5051465;28;20648;-50
2021/04/26 04:51:07;;;;;;;2.53;2.30;;;9.40;37.70;;;;;;5052270;28;21174;-51
2021/04/26 04:53:34;;;;;;;4.10;2.10;;;9.50;37.50;;;;;;5052209;28;20626;-50
2021/04/26 04:56:00;;;;;;;2.67;2.13;;;9.40;37.60;;;;;;5052047;28;21032;-51
2021/04/26 04:58:28;;;;;;;2.80;2.13;;;9.40;37.60;;;;;;5051319;28;20688;-51
2021/04/26 05:00:55;;;;;;;3.67;2.00;;;9.40;37.80;;;;;;5051406;28;20683;-51
2021/04/26 05:03:22;;;;;;;4.60;3.10;;;9.40;37.70;;;;;;5056317;28;21160;-51
2021/04/26 05:05:48;;;;;;;2.80;2.37;;;9.50;37.70;;;;;;5061664;28;20669;-51
2021/04/26 05:08:15;;;;;;;5.37;2.80;;;9.50;37.60;;;;;;5051027;28;20683;-51
2021/04/26 05:10:42;;;;;;;3.47;2.30;;;9.40;37.70;;;;;;5051587;28;20682;-51
2021/04/26 05:13:09;;;;;;;3.50;1.50;;;9.50;37.50;;;;;;5051933;28;20632;-51
2021/04/26 05:15:36;;;;;;;5.00;2.80;;;9.50;37.60;;;;;;5051313;28;20663;-50
2021/04/26 05:18:04;;;;;;;8.00;2.23;;;9.40;37.40;;;;;;5050683;28;21026;-51
2021/04/26 05:20:30;;;;;;;3.13;2.93;;;9.50;37.50;;;;;;5051367;28;20720;-51
2021/04/26 05:22:57;;;;;;;3.00;2.00;;;9.50;37.60;;;;;;5051401;28;20687;-51
2021/04/26 05:25:24;;;;;;;4.73;2.60;;;9.50;37.70;;;;;;5051573;28;20651;-51
2021/04/26 05:27:51;;;;;;;3.30;2.37;;;9.50;37.60;;;;;;5055406;28;20680;-51
2021/04/26 05:30:19;;;;;;;4.03;2.67;;;9.50;37.50;;;;;;5051301;28;20678;-51
2021/04/26 05:32:47;;;;;;;3.50;2.00;;;9.50;37.40;;;;;;5050889;28;20695;-52
2021/04/26 05:35:13;;;;;;;4.43;1.97;;;9.60;37.40;;;;;;5051672;28;20661;-50
2021/04/26 05:37:40;;;;;;;5.00;2.40;;;9.60;37.10;;;;;;5050716;28;20657;-50
2021/04/26 05:40:08;;;;;;;3.00;2.13;;;9.60;37.20;;;;;;5051106;28;20734;-50
2021/04/26 05:42:35;;;;;;;4.80;2.30;;;9.60;37.00;;;;;;5050519;28;20668;-50
2021/04/26 05:45:01;;;;;;;2.87;2.33;;;9.60;37.10;;;;;;5050165;28;20629;-50
2021/04/26 05:47:28;;;;;;;2.60;1.80;;;9.60;37.00;;;;;;5051278;28;21282;-51
2021/04/26 05:49:56;;;;;;;2.40;2.20;;;9.70;36.90;;;;;;5050382;28;20653;-51
2021/04/26 05:52:22;;;;;;;2.50;1.90;;;9.70;36.80;;;;;;5050412;28;20683;-51
2021/04/26 05:54:49;;;;;;;5.93;2.80;;;9.70;36.50;;;;;;5032635;28;20961;-52
2021/04/26 05:57:16;;;;;;;6.20;3.87;;;9.70;36.50;;;;;;5050279;28;20665;-51
2021/04/26 05:59:42;;;;;;;5.20;3.10;;;9.80;36.60;;;;;;5050661;28;20673;-52
2021/04/26 06:02:09;;;;;;;6.70;2.63;;;9.80;36.40;;;;;;5050833;28;20671;-52
2021/04/26 06:04:36;;;;;;;2.77;2.27;;;9.80;36.50;;;;;;5049482;28;20638;-51
2021/04/26 06:07:04;;;;;;;2.70;2.20;;;9.80;36.50;;;;;;5047359;28;20732;-51
2021/04/26 06:09:30;;;;;;;2.20;2.00;;;9.90;36.80;;;;;;5046048;28;20687;-52
2021/04/26 06:11:57;;;;;;;5.13;2.23;;;9.90;36.80;;;;;;5049717;28;20634;-52
2021/04/26 06:14:24;;;;;;;4.97;2.97;;;10.00;35.80;;;;;;5044364;28;20994;-52
2021/04/26 06:16:51;;;;;;;5.00;2.80;;;10.00;35.80;;;;;;5048896;28;20722;-52
2021/04/26 06:19:17;;;;;;;3.37;2.83;;;10.00;35.90;;;;;;5042279;28;20718;-52
2021/04/26 06:21:44;;;;;;;4.10;2.63;;;10.10;35.90;;;;;;5050755;28;20771;-51
2021/04/26 06:24:12;;;;;;;5.60;3.00;;;10.20;35.80;;;;;;5050147;28;20672;-51
2021/04/26 06:26:38;;;;;;;2.37;2.13;;;10.20;35.50;;;;;;5045549;28;21269;-52
2021/04/26 06:29:05;;;;;;;4.80;2.50;;;10.30;35.60;;;;;;5030544;28;20657;-52
2021/04/26 06:31:32;;;;;;;3.60;2.47;;;10.30;35.30;;;;;;5037908;28;20661;-52
2021/04/26 06:33:59;;;;;;;3.63;2.50;;;10.40;35.40;;;;;;5048782;28;20630;-52
2021/04/26 06:36:25;;;;;;;4.80;2.53;;;10.50;35.60;;;;;;5050180;28;20682;-52
2021/04/26 06:38:52;;;;;;;6.83;2.67;;;10.70;35.40;;;;;;5050080;28;20654;-52
2021/04/26 06:41:20;;;;;;;5.73;3.00;;;10.90;35.50;;;;;;5037020;28;20993;-52
2021/04/26 06:43:46;;;;;;;4.17;2.43;;;11.10;34.90;;;;;;5050614;28;20693;-52
2021/04/26 06:46:13;;;;;;;4.67;2.40;;;11.30;34.50;;;;;;5050249;28;20663;-52
2021/04/26 06:48:40;;;;;;;4.10;2.90;;;11.50;34.20;;;;;;5034085;28;20764;-52
2021/04/26 06:51:07;;;;;;;3.10;2.53;;;11.60;33.80;;;;;;5042922;28;20732;-52
2021/04/26 06:53:34;;;;;;;5.60;2.83;;;11.80;33.40;;;;;;5052350;28;20614;-53
2021/04/26 06:56:00;;;;;;;2.63;2.43;;;12.00;32.90;;;;;;5053623;28;20625;-51
2021/04/26 06:58:28;;;;;;;5.63;3.17;;;12.20;32.40;;;;;;5034552;28;20632;-52
2021/04/26 07:00:55;;;;;;;10.30;7.40;;;12.30;32.20;;;;;;5034236;28;20728;-51
2021/04/26 07:03:21;;;;;;;3.30;3.00;;;12.40;32.10;;;;;;5049479;28;20649;-51
2021/04/26 07:05:48;;;;;;;5.50;2.87;;;12.60;32.30;;;;;;5052125;28;20732;-55
2021/04/26 07:08:15;;;;;;;3.43;3.13;;;12.70;31.30;;;;;;5052033;28;20690;-52
2021/04/26 07:10:42;;;;;;;3.83;2.93;;;12.90;31.10;;;;;;5037142;28;20630;-53
2021/04/26 07:13:09;;;;;;;4.33;3.60;;;13.00;31.20;;;;;;5049805;28;20674;-52
2021/04/26 07:15:36;;;;;;;3.03;2.70;;;13.10;30.90;;;;;;5050012;28;20622;-50
2021/04/26 07:18:03;;;;;;;4.03;2.80;;;13.20;31.00;;;;;;5037879;28;20662;-51
2021/04/26 07:20:30;;;;;;;2.87;2.50;;;13.40;30.40;;;;;;5039394;28;20712;-51
2021/04/26 07:22:57;;;;;;;4.57;3.13;;;13.50;30.20;;;;;;5047335;28;20631;-51
2021/04/26 07:25:24;;;;;;;3.30;2.50;;;13.70;30.00;;;;;;5045163;28;21222;-51
2021/04/26 07:27:50;;;;;;;2.43;2.23;;;13.80;30.00;;;;;;5052176;28;20670;-50
2021/04/26 07:30:18;;;;;;;3.93;2.43;;;13.90;29.90;;;;;;5053217;28;20675;-51
2021/04/26 07:32:45;;;;;;;4.00;2.73;;;14.10;30.00;;;;;;5054949;28;20684;-51
2021/04/26 07:35:13;;;;;;;4.57;2.90;;;14.20;29.80;;;;;;5052471;28;20621;-50
2021/04/26 07:37:40;;;;;;;4.10;2.87;;;14.30;29.60;;;;;;5051135;28;20730;-50
2021/04/26 07:40:08;;;;;;;4.13;3.20;;;14.30;29.20;;;;;;5047913;28;20662;-51
2021/04/26 07:42:35;;;;;;;5.23;2.67;;;14.50;29.00;;;;;;5055384;28;21170;-51
2021/04/26 07:45:02;;;;;;;4.40;3.57;;;14.50;29.00;;;;;;5050394;28;20707;-51
2021/04/26 07:47:28;;;;;;;3.13;2.40;;;14.70;29.40;;;;;;5051699;28;20665;-51
2021/04/26 07:49:56;;;;;;;5.63;2.50;;;14.80;29.10;;;;;;5033483;28;20619;-51
2021/04/26 07:52:23;;;;;;;5.70;2.80;;;15.00;29.00;;;;;;5044042;28;20663;-51
2021/04/26 07:54:50;;;;;;;2.87;2.57;;;15.20;28.80;;;;;;5033679;28;20639;-51
2021/04/26 07:57:19;;;;;;;5.73;3.13;;;15.30;28.30;;;;;;5043932;28;20720;-51
2021/04/26 07:59:46;;;;;;;3.73;2.30;;;15.40;28.00;;;;;;5064340;28;20660;-51
2021/04/26 08:02:13;;;;;;;3.50;3.20;;;15.50;27.90;;;;;;5048059;28;20627;-51
2021/04/26 08:04:40;;;;;;;3.63;3.27;;;15.70;27.80;;;;;;5051472;28;20622;-50
2021/04/26 08:07:07;;;;;;;3.27;2.97;;;15.80;27.50;;;;;;5047146;28;20739;-50
2021/04/26 08:09:34;;;;;;;3.27;2.07;;;16.00;27.20;;;;;;5035329;28;20705;-50
2021/04/26 08:12:01;;;;;;;5.17;2.63;;;16.20;27.20;;;;;;5033484;28;20666;-50
2021/04/26 08:14:28;;;;;;;3.30;2.07;;;16.30;26.70;;;;;;5049954;28;20934;-50
2021/04/26 08:16:54;;;;;;;4.47;2.87;;;16.50;26.70;;;;;;5048741;28;20654;-50
2021/04/26 08:19:21;;;;;;;2.27;2.07;;;16.50;26.10;;;;;;5039419;28;20753;-50
2021/04/26 08:21:49;;;;;;;3.37;2.23;;;16.40;26.00;;;;;;5052217;28;20618;-50
2021/04/26 08:24:16;;;;;;;7.70;2.80;;;16.20;26.00;;;;;;5051405;28;20629;-50
2021/04/26 08:26:44;;;;;;;3.90;2.60;;;16.10;26.20;;;;;;5048483;28;21093;-50
2021/04/26 08:29:10;;;;;;;5.20;2.97;;;16.20;26.00;;;;;;5048133;28;21190;-50
2021/04/26 08:31:37;;;;;;;2.40;2.03;;;16.20;25.40;;;;;;5042246;28;20717;-51
2021/04/26 08:34:04;;;;;;;7.10;2.90;;;16.10;25.20;;;;;;5048358;28;20646;-50
2021/04/26 08:36:31;;;;;;;3.20;2.27;;;15.90;24.90;;;;;;5050489;28;20680;-50
2021/04/26 08:38:58;;;;;;;1.90;1.37;;;15.80;25.00;;;;;;5049704;28;21187;-50
2021/04/26 08:41:25;;;;;;;5.50;1.63;;;15.80;25.40;;;;;;5048474;28;21004;-50
2021/04/26 08:43:52;;;;;;;2.20;1.80;;;15.70;25.20;;;;;;5047655;28;20974;-50
2021/04/26 08:46:19;;;;;;;6.07;2.27;;;15.70;24.90;;;;;;5051074;28;21295;-50
2021/04/26 08:48:45;;;;;;;1.60;1.50;;;15.80;24.80;;;;;;5043810;28;21178;-50
2021/04/26 08:51:12;;;;;;;3.07;1.83;;;15.90;25.00;;;;;;5049724;28;20680;-50
2021/04/26 08:53:39;;;;;;;4.80;2.90;;;16.10;25.10;;;;;;5051469;28;20650;-51
2021/04/26 08:56:07;;;;;;;2.17;1.73;;;16.40;24.90;;;;;;5051637;28;21031;-51
2021/04/26 08:58:34;;;;;;;5.10;1.97;;;16.80;24.60;;;;;;5051046;28;20622;-50
2021/04/26 09:01:01;;;;;;;1.90;1.57;;;17.10;24.00;;;;;;5051354;28;20658;-50
2021/04/26 09:03:31;;;;;;;4.63;1.67;;;17.30;23.70;;;;;;5050748;28;21224;-50
2021/04/26 09:05:59;;;;;;;3.60;1.53;;;17.40;23.50;;;;;;5047909;28;20638;-51
2021/04/26 09:08:28;;;;;;;10.43;2.73;;;17.50;23.70;;;;;;5050991;28;21052;-51
2021/04/26 09:11:00;;;;;;;4.43;1.57;;;17.50;23.90;;;;;;5051231;28;20630;-50
2021/04/26 09:13:32;;;;;;;4.90;2.50;;;17.50;23.70;;;;;;5051435;28;20634;-50
2021/04/26 09:16:01;;;;;;;3.07;1.90;;;17.50;23.50;;;;;;5036007;28;20677;-50
2021/04/26 09:18:43;;;;;;;2.70;2.20;;;17.60;23.30;;;;;;5041118;28;20708;-51
2021/04/26 09:21:14;;;;;;;2.43;2.00;;;17.60;23.00;;;;;;5038319;28;20763;-51
2021/04/26 09:23:41;;;;;;;5.33;2.10;;;17.60;22.90;;;;;;5051212;28;21055;-51
2021/04/26 09:26:25;;;;;;;3.13;1.70;;;17.60;23.10;;;;;;5049910;28;20638;-51
2021/04/26 09:29:10;;;;;;;2.83;2.00;;;17.50;22.60;;;;;;5048627;28;20695;-51
2021/04/26 09:31:38;;;;;;;3.00;1.90;;;17.40;22.10;;;;;;5050819;28;20630;-51
2021/04/26 09:34:05;;;;;;;7.43;2.10;;;17.30;22.50;;;;;;5050938;28;20634;-51
2021/04/26 09:36:33;;;;;;;1.47;1.37;;;17.40;22.20;;;;;;5063126;28;20669;-51
2021/04/26 09:39:03;;;;;;;3.60;2.23;;;17.40;22.10;;;;;;5041530;28;20699;-51
2021/04/26 09:41:30;;;;;;;5.20;1.87;;;17.40;22.30;;;;;;5051055;28;20719;-51
2021/04/26 09:44:10;;;;;;;3.40;2.20;;;17.50;22.50;;;;;;5050880;28;21264;-51
2021/04/26 09:46:42;;;;;;;2.00;1.90;;;17.70;22.20;;;;;;5050854;28;20654;-51
2021/04/26 09:49:10;;;;;;;2.90;2.10;;;18.10;21.70;;;;;;5050344;28;20688;-51
2021/04/26 09:51:36;;;;;;;1.70;1.60;;;18.60;21.50;;;;;;5050490;28;20614;-51
2021/04/26 09:54:04;;;;;;;2.37;1.70;;;19.10;21.50;;;;;;5030956;28;20619;-52
2021/04/26 09:56:36;;;;;;;2.40;2.20;;;19.50;21.10;;;;;;5031261;28;20666;-51
2021/04/26 09:59:03;;;;;;;4.10;1.80;;;19.80;20.70;;;;;;5030733;28;21044;-51
2021/04/26 10:01:30;;;;;;;2.97;2.60;;;20.10;20.80;;;;;;5030592;28;20781;-51
2021/04/26 10:03:58;;;;;;;1.90;1.67;;;20.40;20.60;;;;;;5050132;28;20626;-52
2021/04/26 10:06:25;;;;;;;2.90;2.20;;;20.40;20.30;;;;;;5049453;28;20658;-52
2021/04/26 10:08:53;;;;;;;2.27;2.07;;;20.40;19.80;;;;;;5034287;28;20669;-52
2021/04/26 10:11:21;;;;;;;2.33;1.80;;;20.40;19.80;;;;;;5049823;28;20688;-52
2021/04/26 10:13:49;;;;;;;2.13;1.80;;;20.20;19.10;;;;;;5045328;28;20618;-52
2021/04/26 10:16:18;;;;;;;1.60;1.50;;;20.20;19.30;;;;;;5051313;28;20670;-51
2021/04/26 10:18:44;;;;;;;2.00;1.90;;;20.20;19.20;;;;;;5050669;28;20618;-52
2021/04/26 10:21:31;;;;;;;4.47;2.20;;;20.20;19.50;;;;;;5050404;28;21214;-51
2021/04/26 10:23:58;;;;;;;2.43;2.00;;;20.10;20.00;;;;;;5050854;28;20626;-52
2021/04/26 10:26:42;;;;;;;3.17;1.90;;;20.00;20.50;;;;;;5051378;28;20646;-50
2021/04/26 10:29:10;;;;;;;2.30;2.10;;;20.10;20.60;;;;;;5061583;28;20677;-52
2021/04/26 10:32:02;;;;;;;3.00;1.73;;;20.40;20.30;;;;;;5054416;28;20622;-51
2021/04/26 10:34:29;;;;;;;2.27;2.07;;;20.70;20.10;;;;;;5051324;28;20648;-51
2021/04/26 10:36:58;;;;;;;2.70;1.87;;;20.70;20.00;;;;;;5053896;28;20653;-51
2021/04/26 10:39:25;;;;;;;2.50;2.30;;;20.90;20.10;;;;;;5051885;28;20695;-51
2021/04/26 10:42:06;;;;;;;3.20;2.67;;;21.10;19.90;;;;;;5049854;28;20657;-51
2021/04/26 10:44:51;;;;;;;2.40;2.20;;;21.20;19.60;;;;;;5052465;28;20629;-50
2021/04/26 10:47:21;;;;;;;3.00;1.80;;;21.30;20.10;;;;;;5047649;28;20910;-51
2021/04/26 10:49:48;;;;;;;7.77;2.60;;;21.00;19.30;;;;;;5064584;28;20678;-51
2021/04/26 10:52:36;;;;;;;2.53;1.90;;;20.90;19.40;;;;;;5036437;28;21198;-51
2021/04/26 10:55:05;;;;;;;3.03;1.73;;;20.60;18.90;;;;;;5035531;28;20629;-51
2021/04/26 10:57:32;;;;;;;4.17;2.30;;;20.30;19.10;;;;;;5051912;28;20677;-51
2021/04/26 11:00:36;;;;;;;4.70;1.87;;;20.20;19.40;;;;;;5064299;28;20657;-51
2021/04/26 11:03:52;;;;;;;4.40;2.80;;;20.10;20.10;;;;;;5042065;28;20638;-51
2021/04/26 11:06:27;;;;;;;2.87;2.23;;;20.00;20.10;;;;;;5051445;28;20646;-50
2021/04/26 11:14:26;;;;;;;2.60;1.70;;;20.90;20.00;;;;;;5064708;28;20637;-51
2021/04/26 11:16:58;;;;;;;3.80;2.40;;;22.10;19.50;;;;;;5057602;28;20653;-51
2021/04/26 11:19:24;;;;;;;2.77;2.57;;;22.70;18.90;;;;;;5051489;28;20622;-51
2021/04/26 11:21:55;;;;;;;3.43;2.07;;;23.10;18.70;;;;;;5052035;28;20720;-52
2021/04/26 11:25:04;;;;;;;3.73;3.30;;;23.40;18.50;;;;;;5052089;28;20760;-51
2021/04/26 11:27:36;;;;;;;2.30;2.10;;;23.60;18.30;;;;;;5056179;28;20656;-51
2021/04/26 11:30:20;;;;;;;3.53;2.20;;;23.90;18.10;;;;;;5045353;28;20706;-51
2021/04/26 11:33:09;;;;;;;5.40;4.83;;;24.10;17.90;;;;;;5033787;28;20627;-51
2021/04/26 11:36:04;;;;;;;2.20;2.00;;;24.20;17.70;;;;;;5033647;28;20811;-51
2021/04/26 11:38:31;;;;;;;1.67;1.57;;;24.60;17.60;;;;;;5047005;28;20625;-50
2021/04/26 11:40:57;;;;;;;2.60;1.90;;;25.00;17.40;;;;;;5052735;28;20694;-51
2021/04/26 11:43:25;;;;;;;4.13;2.17;;;25.10;16.90;;;;;;5064172;28;21144;-51
2021/04/26 11:45:52;;;;;;;3.37;2.00;;;24.50;16.30;;;;;;5039846;28;20633;-51
2021/04/26 11:48:22;;;;;;;5.93;2.27;;;23.80;16.80;;;;;;5053186;28;20638;-51
2021/04/26 11:50:49;;;;;;;2.13;1.70;;;23.50;17.40;;;;;;5035161;28;20627;-51
2021/04/26 11:53:26;;;;;;;5.80;1.60;;;23.40;17.40;;;;;;5033046;28;21066;-50
2021/04/26 11:55:53;;;;;;;1.43;1.33;;;23.30;17.30;;;;;;5052248;28;20671;-50
2021/04/26 11:58:27;;;;;;;3.90;1.63;;;23.40;17.60;;;;;;5052012;28;20621;-51
2021/04/26 12:01:06;;;;;;;4.70;2.27;;;23.70;17.60;;;;;;5052318;28;20731;-51
2021/04/26 12:03:33;;;;;;;2.83;1.90;;;24.10;17.40;;;;;;5044998;28;20664;-51
2021/04/26 12:06:01;;;;;;;7.63;6.83;;;24.50;17.10;;;;;;5047574;28;20675;-51
2021/04/26 12:08:42;;;;;;;4.03;2.67;;;24.60;16.80;;;;;;5052604;28;20987;-51
2021/04/26 12:11:19;;;;;;;2.60;1.77;;;24.70;16.50;;;;;;5058994;28;21210;-51
2021/04/26 12:14:11;;;;;;;3.97;2.37;;;24.60;16.10;;;;;;5052638;28;20626;-50
2021/04/26 12:16:38;;;;;;;11.00;8.27;;;24.30;16.30;;;;;;5049631;28;20653;-51
2021/04/26 12:19:05;;;;;;;2.47;1.80;;;24.00;16.30;;;;;;5051546;28;20664;-51
2021/04/26 12:21:35;;;;;;;5.20;1.63;;;24.00;16.40;;;;;;5052595;28;21030;-51
2021/04/26 12:24:01;;;;;;;1.70;1.60;;;24.20;16.20;;;;;;5058073;28;20637;-51
2021/04/26 12:26:28;;;;;;;1.90;1.70;;;24.70;16.00;;;;;;5072772;28;20734;-51
2021/04/26 12:28:55;;;;;;;3.80;1.90;;;24.90;16.10;;;;;;5044809;28;20631;-52
2021/04/26 12:31:24;;;;;;;2.40;2.10;;;25.00;16.20;;;;;;5021457;28;20669;-52
2021/04/26 12:33:51;;;;;;;1.70;1.50;;;25.20;16.20;;;;;;5051677;28;20634;-51
2021/04/26 12:36:18;;;;;;;2.40;1.90;;;25.10;16.00;;;;;;5063371;28;20646;-51
2021/04/26 12:38:52;;;;;;;2.60;1.50;;;24.90;16.20;;;;;;5059167;28;20633;-51
2021/04/26 12:41:19;;;;;;;7.77;2.57;;;24.70;15.70;;;;;;5067410;28;20653;-51
2021/04/26 12:43:53;;;;;;;2.13;1.77;;;24.60;16.30;;;;;;5040361;28;20762;-51
2021/04/26 12:46:20;;;;;;;3.60;2.07;;;24.50;16.70;;;;;;5037805;28;21065;-51
2021/04/26 12:48:47;;;;;;;2.60;1.80;;;24.70;16.20;;;;;;5041414;28;20618;-51
2021/04/26 12:51:27;;;;;;;14.43;2.43;;;24.80;15.90;;;;;;5051063;28;20610;-51
2021/04/26 12:53:55;;;;;;;2.40;1.87;;;24.80;16.30;;;;;;5055539;28;20944;-50
2021/04/26 12:56:22;;;;;;;3.43;1.43;;;24.90;16.50;;;;;;5069313;28;20668;-50
2021/04/26 12:58:52;;;;;;;34.67;10.00;;;25.10;16.20;;;;;;5063415;28;20633;-51
2021/04/26 13:01:21;;;;;;;3.83;1.70;;;25.20;16.30;;;;;;5049653;28;20646;-50
2021/04/26 13:03:55;;;;;;;2.43;1.63;;;25.50;16.30;;;;;;5058255;28;20689;-51